Time,TemperatureF,DewpointF,PressureIn,WindDirection,WindDirectionDegrees,WindSpeedMPH,WindSpeedGustMPH,Humidity,HourlyPrecipIn,Conditions,Clouds,dailyrainin,SoftwareType,DateUTC
2013-10-02 08:28:00,28.6,27.6,30.06,SSE,168,0.0,0.0,96,0.00,,SCT,0.00,VWS V14.01,2013-10-02 15:28:00,
2013-10-02 08:30:00,28.8,27.8,30.06,South,172,3.1,5.8,96,0.00,,SCT,0.00,VWS V14.01,2013-10-02 15:30:00,
2013-10-02 08:33:00,28.9,27.9,30.06,SE,135,3.1,5.4,96,0.00,,SCT,0.00,VWS V14.01,2013-10-02 15:33:00,
2013-10-02 08:38:00,29.1,28.1,30.06,ENE,67,6.3,6.3,96,0.00,,SCT,0.00,VWS V14.01,2013-10-02 15:38:00,
2013-10-02 08:43:00,29.5,28.2,30.06,South,180,0.0,6.3,95,0.00,,SCT,0.00,VWS V14.01,2013-10-02 15:43:00,
2013-10-02 08:45:00,29.5,28.2,30.06,SSE,162,0.0,6.3,95,0.00,,SCT,0.00,VWS V14.01,2013-10-02 15:45:00,
2013-10-02 08:48:00,29.8,28.6,30.06,SE,145,0.0,0.0,95,0.00,,SCT,0.00,VWS V14.01,2013-10-02 15:48:00,
2013-10-02 08:53:00,30.0,28.8,30.06,WSW,253,0.0,4.9,95,0.00,,SCT,0.00,VWS V14.01,2013-10-02 15:53:00,
2013-10-02 08:59:00,30.2,28.7,30.06,South,182,2.7,6.3,94,0.00,,SCT,0.00,VWS V14.01,2013-10-02 15:59:00,
2013-10-02 09:00:00,30.2,28.4,30.06,SE,130,4.0,6.3,93,0.00,,SCT,0.00,VWS V14.01,2013-10-02 16:00:00,
2013-10-02 09:04:00,30.6,28.5,30.06,South,169,3.1,5.8,92,0.00,,SCT,0.00,VWS V14.01,2013-10-02 16:04:00,
2013-10-02 09:09:00,30.7,28.2,30.06,South,175,4.9,5.8,90,0.00,,SCT,0.00,VWS V14.01,2013-10-02 16:09:00,
2013-10-02 09:14:00,31.1,28.5,30.06,WNW,290,0.0,5.8,90,0.00,,SCT,0.00,VWS V14.01,2013-10-02 16:14:00,
2013-10-02 09:15:00,31.1,28.5,30.06,West,265,0.0,5.8,90,0.00,,SCT,0.00,VWS V14.01,2013-10-02 16:15:00,
2013-10-02 09:19:00,31.3,28.4,30.06,SE,143,0.0,4.0,89,0.00,,SCT,0.00,VWS V14.01,2013-10-02 16:19:00,
2013-10-02 09:24:00,31.6,28.8,30.06,South,177,0.0,4.0,89,0.00,,SCT,0.00,VWS V14.01,2013-10-02 16:24:00,
2013-10-02 09:29:00,32.0,28.9,30.06,South,186,0.0,4.0,88,0.00,,SCT,0.00,VWS V14.01,2013-10-02 16:29:00,
2013-10-02 09:30:00,32.2,29.0,30.06,South,179,0.0,4.0,88,0.00,,SCT,0.00,VWS V14.01,2013-10-02 16:30:00,
2013-10-02 09:34:00,32.4,28.9,30.06,SSE,164,0.0,0.0,87,0.00,,SCT,0.00,VWS V14.01,2013-10-02 16:34:00,
2013-10-02 09:39:00,32.7,29.0,30.06,SW,229,0.0,5.4,86,0.00,,SCT,0.00,VWS V14.01,2013-10-02 16:39:00,
2013-10-02 09:44:00,33.1,29.1,30.06,SSE,159,0.0,5.4,85,0.00,,SCT,0.00,VWS V14.01,2013-10-02 16:44:00,
2013-10-02 09:45:00,33.1,29.1,30.06,SSE,159,0.0,5.4,85,0.00,,SCT,0.00,VWS V14.01,2013-10-02 16:45:00,
2013-10-02 09:49:00,33.6,29.0,30.06,SSW,192,0.0,0.0,83,0.00,,SCT,0.00,VWS V14.01,2013-10-02 16:49:00,
2013-10-02 09:54:00,34.3,29.7,30.06,NW,308,0.0,0.0,83,0.00,,SCT,0.00,VWS V14.01,2013-10-02 16:54:00,
2013-10-02 10:00:00,35.1,30.4,30.06,NW,314,0.0,0.0,83,0.00,,SCT,0.00,VWS V14.01,2013-10-02 17:00:00,
2013-10-02 10:05:00,35.8,30.5,30.06,WNW,299,0.0,0.0,81,0.00,,SCT,0.00,VWS V14.01,2013-10-02 17:05:00,
2013-10-02 10:10:00,36.7,30.2,30.06,NNW,340,0.0,0.0,77,0.00,,SCT,0.00,VWS V14.01,2013-10-02 17:10:00,
2013-10-02 10:15:00,37.2,30.4,30.06,NNW,331,0.0,0.0,76,0.00,,SCT,0.00,VWS V14.01,2013-10-02 17:15:00,
2013-10-02 10:20:00,37.8,30.2,30.06,NNW,344,0.0,0.0,74,0.00,,SCT,0.00,VWS V14.01,2013-10-02 17:20:00,
2013-10-02 10:25:00,38.5,30.2,30.06,NW,325,0.0,0.0,72,0.00,,SCT,0.00,VWS V14.01,2013-10-02 17:25:00,
2013-10-02 10:30:00,39.2,31.0,30.06,NW,315,0.0,0.0,72,0.00,,SCT,0.00,VWS V14.01,2013-10-02 17:30:00,
2013-10-02 10:35:00,39.6,29.9,30.06,West,271,0.0,0.0,68,0.00,,SCT,0.00,VWS V14.01,2013-10-02 17:35:00,
2013-10-02 10:40:00,39.9,29.9,30.06,NW,311,0.0,0.0,67,0.00,,SCT,0.00,VWS V14.01,2013-10-02 17:40:00,
2013-10-02 10:45:00,40.3,29.8,30.06,NNW,327,0.0,0.0,66,0.00,,SCT,0.00,VWS V14.01,2013-10-02 17:45:00,
2013-10-02 10:50:00,40.5,28.9,30.06,West,281,0.0,0.0,63,0.00,,SCT,0.00,VWS V14.01,2013-10-02 17:50:00,
2013-10-02 10:55:00,40.6,29.4,30.06,NNW,332,0.0,0.0,64,0.00,,SCT,0.00,VWS V14.01,2013-10-02 17:55:00,
2013-10-02 11:00:00,41.0,29.0,30.06,NW,322,0.0,0.0,62,0.00,,SCT,0.00,VWS V14.01,2013-10-02 18:00:00,
2013-10-02 11:05:00,40.8,28.8,30.06,NW,315,0.0,0.0,62,0.00,,SCT,0.00,VWS V14.01,2013-10-02 18:05:00,
2013-10-02 11:10:00,41.0,28.2,30.06,NW,318,0.0,0.0,60,0.00,,SCT,0.00,VWS V14.01,2013-10-02 18:10:00,
2013-10-02 11:15:00,41.0,28.2,30.06,NW,320,0.0,0.0,60,0.00,,SCT,0.00,VWS V14.01,2013-10-02 18:15:00,
2013-10-02 11:20:00,41.4,28.9,30.06,North,353,0.0,0.0,61,0.00,,SCT,0.00,VWS V14.01,2013-10-02 18:20:00,
2013-10-02 11:25:00,41.5,27.9,30.06,NNW,334,0.0,0.0,58,0.00,,SCT,0.00,VWS V14.01,2013-10-02 18:25:00,
2013-10-02 11:30:00,41.7,28.0,30.06,WNW,283,0.0,4.5,58,0.00,,SCT,0.00,VWS V14.01,2013-10-02 18:30:00,
2013-10-02 11:31:00,41.7,27.6,30.06,NNW,330,0.0,0.0,57,0.00,,SCT,0.00,VWS V14.01,2013-10-02 18:31:00,
2013-10-02 11:35:00,41.7,27.2,30.06,WNW,297,0.0,0.0,56,0.00,,SCT,0.00,VWS V14.01,2013-10-02 18:35:00,
2013-10-02 11:40:00,41.7,26.8,30.06,South,175,0.0,0.0,55,0.00,,SCT,0.00,VWS V14.01,2013-10-02 18:40:00,
2013-10-02 11:45:00,41.7,27.2,30.06,South,175,0.0,0.0,56,0.00,,SCT,0.00,VWS V14.01,2013-10-02 18:45:00,
2013-10-02 11:46:00,41.7,27.2,30.06,South,175,0.0,0.0,56,0.00,,SCT,0.00,VWS V14.01,2013-10-02 18:46:00,
2013-10-02 11:51:00,42.1,27.5,30.03,SSW,213,0.0,0.0,56,0.00,,SCT,0.00,VWS V14.01,2013-10-02 18:51:00,
2013-10-02 11:56:00,42.4,27.4,30.03,ESE,109,0.0,0.0,55,0.00,,SCT,0.00,VWS V14.01,2013-10-02 18:56:00,
2013-10-02 12:00:00,42.6,27.6,30.03,ESE,113,0.0,0.0,55,0.00,,SCT,0.00,VWS V14.01,2013-10-02 19:00:00,
2013-10-02 12:01:00,42.4,26.5,30.03,SE,136,6.3,6.3,53,0.00,,SCT,0.00,VWS V14.01,2013-10-02 19:01:00,
2013-10-02 12:06:00,42.8,26.9,30.03,SE,136,0.0,6.3,53,0.00,,SCT,0.00,VWS V14.01,2013-10-02 19:06:00,
2013-10-02 12:11:00,43.3,26.9,30.03,SSE,149,0.0,6.3,52,0.00,,SCT,0.00,VWS V14.01,2013-10-02 19:11:00,
2013-10-02 12:15:00,43.7,27.7,30.03,SE,141,0.0,6.3,53,0.00,,SCT,0.00,VWS V14.01,2013-10-02 19:15:00,
2013-10-02 12:16:00,44.1,27.6,30.03,SE,125,0.0,0.0,52,0.00,,SCT,0.00,VWS V14.01,2013-10-02 19:16:00,
2013-10-02 12:21:00,44.2,26.8,30.03,East,100,0.0,4.0,50,0.00,,SCT,0.00,VWS V14.01,2013-10-02 19:21:00,
2013-10-02 12:26:00,44.4,27.0,30.03,SSE,154,0.0,4.0,50,0.00,,SCT,0.00,VWS V14.01,2013-10-02 19:26:00,
2013-10-02 12:30:00,44.6,26.6,30.03,North,353,0.0,4.0,49,0.00,,SCT,0.00,VWS V14.01,2013-10-02 19:30:00,
2013-10-02 12:31:00,45.0,27.5,30.03,NNW,337,0.0,0.0,50,0.00,,SCT,0.00,VWS V14.01,2013-10-02 19:31:00,
2013-10-02 12:36:00,46.4,28.3,30.03,ENE,74,0.0,4.9,49,0.00,,SCT,0.00,VWS V14.01,2013-10-02 19:36:00,
2013-10-02 12:41:00,46.2,27.1,30.03,East,99,2.7,4.9,47,0.00,,SCT,0.00,VWS V14.01,2013-10-02 19:41:00,
2013-10-02 12:45:00,45.9,26.3,30.03,South,181,0.0,4.9,46,0.00,,SCT,0.00,VWS V14.01,2013-10-02 19:45:00,
2013-10-02 12:46:00,45.5,25.4,30.03,SSE,163,0.0,0.0,45,0.00,,SCT,0.00,VWS V14.01,2013-10-02 19:46:00,
2013-10-02 12:52:00,45.1,25.1,30.03,SW,234,0.0,0.0,45,0.00,,SCT,0.00,VWS V14.01,2013-10-02 19:52:00,
2013-10-02 12:57:00,45.1,26.6,30.03,WSW,238,0.0,0.0,48,0.00,,SCT,0.00,VWS V14.01,2013-10-02 19:57:00,
2013-10-02 13:00:00,45.3,27.3,30.03,NW,306,0.0,0.0,49,0.00,,SCT,0.00,VWS V14.01,2013-10-02 20:00:00,
2013-10-02 13:02:00,45.5,27.5,30.03,NW,319,0.0,0.0,49,0.00,,SCT,0.00,VWS V14.01,2013-10-02 20:02:00,
2013-10-02 13:07:00,45.9,27.3,30.03,WNW,291,0.0,0.0,48,0.00,,SCT,0.00,VWS V14.01,2013-10-02 20:07:00,
2013-10-02 13:12:00,46.0,28.5,30.03,NW,322,0.0,5.8,50,0.00,,SCT,0.00,VWS V14.01,2013-10-02 20:12:00,
2013-10-02 13:15:00,46.4,28.8,30.03,NNW,327,0.0,5.8,50,0.00,,SCT,0.00,VWS V14.01,2013-10-02 20:15:00,
2013-10-02 13:17:00,46.8,29.1,30.03,NW,314,3.6,3.6,50,0.00,,SCT,0.00,VWS V14.01,2013-10-02 20:17:00,
2013-10-02 13:22:00,46.9,29.3,30.03,NW,308,2.7,6.7,50,0.00,,SCT,0.00,VWS V14.01,2013-10-02 20:22:00,
2013-10-02 13:27:00,46.4,28.3,30.03,NW,321,0.0,7.6,49,0.00,,SCT,0.00,VWS V14.01,2013-10-02 20:27:00,
2013-10-02 13:30:00,46.2,28.6,30.03,NNW,329,0.0,7.6,50,0.00,,SCT,0.00,VWS V14.01,2013-10-02 20:30:00,
2013-10-02 13:32:00,46.0,28.9,30.03,NNW,343,5.4,7.6,51,0.00,,SCT,0.00,VWS V14.01,2013-10-02 20:32:00,
2013-10-02 13:37:00,46.4,28.8,30.03,NW,323,4.9,7.6,50,0.00,,SCT,0.00,VWS V14.01,2013-10-02 20:37:00,